sensor_id;sensor_type;location;lat;lon;timestamp;pressure;altitude;pressure_sealevel;temperature;humidity
56334;BME280;42240;53.626;55.886;2023-01-24T00:00:02;80228.50;;;-145.10;100.00
56334;BME280;42240;53.626;55.886;2023-01-24T00:01:36;80224.53;;;-145.10;100.00
56334;BME280;42240;53.626;55.886;2023-01-24T00:03:09;80240.38;;;-145.10;100.00
56334;BME280;42240;53.626;55.886;2023-01-24T00:04:45;80258.19;;;-145.10;100.00
56334;BME280;42240;53.626;55.886;2023-01-24T00:06:19;80276.00;;;-145.10;100.00
56334;BME280;42240;53.626;55.886;2023-01-24T00:07:52;80248.28;;;-145.10;100.00
56334;BME280;42240;53.626;55.886;2023-01-24T00:09:25;80274.03;;;-145.10;100.00
56334;BME280;42240;53.626;55.886;2023-01-24T00:11:00;80274.03;;;-145.10;100.00
56334;BME280;42240;53.626;55.886;2023-01-24T00:12:33;80295.78;;;-145.10;100.00
56334;BME280;42240;53.626;55.886;2023-01-24T00:14:06;80323.50;;;-145.10;100.00
56334;BME280;42240;53.626;55.886;2023-01-24T00:15:41;80319.53;;;-145.10;100.00
56334;BME280;42240;53.626;55.886;2023-01-24T00:17:14;80315.59;;;-145.10;100.00
56334;BME280;42240;53.626;55.886;2023-01-24T00:18:48;80313.59;;;-145.10;100.00
56334;BME280;42240;53.626;55.886;2023-01-24T00:20:21;80307.66;;;-145.10;100.00
56334;BME280;42240;53.626;55.886;2023-01-24T00:21:54;80313.59;;;-145.10;100.00
56334;BME280;42240;53.626;55.886;2023-01-24T00:23:28;80321.53;;;-145.10;100.00
56334;BME280;42240;53.626;55.886;2023-01-24T00:25:01;80317.56;;;-145.10;100.00
56334;BME280;42240;53.626;55.886;2023-01-24T00:26:34;80325.47;;;-145.10;100.00
56334;BME280;42240;53.626;55.886;2023-01-24T00:28:07;80319.53;;;-145.10;100.00
56334;BME280;42240;53.626;55.886;2023-01-24T00:29:40;80317.56;;;-145.10;100.00
56334;BME280;42240;53.626;55.886;2023-01-24T00:31:13;80313.59;;;-145.10;100.00
56334;BME280;42240;53.626;55.886;2023-01-24T00:32:47;80438.28;;;-145.10;100.00
56334;BME280;42240;53.626;55.886;2023-01-24T00:34:20;80283.91;;;-145.10;100.00
56334;BME280;42240;53.626;55.886;2023-01-24T00:35:53;80281.94;;;-145.10;100.00
56334;BME280;42240;53.626;55.886;2023-01-24T00:37:27;80323.50;;;-145.10;100.00
56334;BME280;42240;53.626;55.886;2023-01-24T00:39:00;80262.16;;;-145.10;100.00
56334;BME280;42240;53.626;55.886;2023-01-24T00:40:33;80260.16;;;-145.10;100.00
56334;BME280;42240;53.626;55.886;2023-01-24T00:42:06;80260.16;;;-145.10;100.00
56334;BME280;42240;53.626;55.886;2023-01-24T00:43:41;80250.28;;;-145.10;100.00
56334;BME280;42240;53.626;55.886;2023-01-24T00:45:14;80240.38;;;-145.10;100.00
56334;BME280;42240;53.626;55.886;2023-01-24T00:46:51;80244.31;;;-145.10;100.00
56334;BME280;42240;53.626;55.886;2023-01-24T00:48:24;80240.38;;;-145.10;100.00
56334;BME280;42240;53.626;55.886;2023-01-24T00:49:57;80236.41;;;-145.10;100.00
56334;BME280;42240;53.626;55.886;2023-01-24T00:51:31;80236.41;;;-145.10;100.00
56334;BME280;42240;53.626;55.886;2023-01-24T00:53:04;80372.97;;;-145.10;100.00
56334;BME280;42240;53.626;55.886;2023-01-24T00:54:37;80228.50;;;-145.10;100.00
56334;BME280;42240;53.626;55.886;2023-01-24T00:56:10;80230.47;;;-145.10;100.00
56334;BME280;42240;53.626;55.886;2023-01-24T00:57:43;80232.44;;;-145.10;100.00
56334;BME280;42240;53.626;55.886;2023-01-24T00:59:16;80232.44;;;-145.10;100.00
56334;BME280;42240;53.626;55.886;2023-01-24T01:00:49;80224.53;;;-145.10;100.00
56334;BME280;42240;53.626;55.886;2023-01-24T01:02:22;80216.63;;;-145.10;100.00
56334;BME280;42240;53.626;55.886;2023-01-24T01:03:56;80222.56;;;-145.10;100.00
56334;BME280;42240;53.626;55.886;2023-01-24T01:05:30;80220.56;;;-145.10;100.00
56334;BME280;42240;53.626;55.886;2023-01-24T01:07:03;80220.56;;;-145.10;100.00
56334;BME280;42240;53.626;55.886;2023-01-24T01:08:36;80224.53;;;-145.10;100.00
56334;BME280;42240;53.626;55.886;2023-01-24T01:10:10;80236.41;;;-145.10;100.00
56334;BME280;42240;53.626;55.886;2023-01-24T01:11:43;80303.72;;;-145.10;100.00
56334;BME280;42240;53.626;55.886;2023-01-24T01:13:16;80343.28;;;-145.10;100.00
56334;BME280;42240;53.626;55.886;2023-01-24T01:14:49;80279.97;;;-145.10;100.00
56334;BME280;42240;53.626;55.886;2023-01-24T01:16:23;80208.72;;;-145.10;100.00
56334;BME280;42240;53.626;55.886;2023-01-24T01:17:57;80214.66;;;-145.10;100.00
56334;BME280;42240;53.626;55.886;2023-01-24T01:19:30;80214.66;;;-145.10;100.00
56334;BME280;42240;53.626;55.886;2023-01-24T01:21:03;80224.53;;;-145.10;100.00
56334;BME280;42240;53.626;55.886;2023-01-24T01:22:37;80206.72;;;-145.10;100.00
56334;BME280;42240;53.626;55.886;2023-01-24T01:24:10;80202.78;;;-145.10;100.00
56334;BME280;42240;53.626;55.886;2023-01-24T01:25:44;80196.84;;;-145.10;100.00
56334;BME280;42240;53.626;55.886;2023-01-24T01:27:17;80192.88;;;-145.10;100.00
56334;BME280;42240;53.626;55.886;2023-01-24T01:28:50;80188.91;;;-145.10;100.00
56334;BME280;42240;53.626;55.886;2023-01-24T01:30:24;80206.72;;;-145.10;100.00
56334;BME280;42240;53.626;55.886;2023-01-24T01:31:57;80184.97;;;-145.10;100.00
56334;BME280;42240;53.626;55.886;2023-01-24T01:33:30;80184.97;;;-145.10;100.00
56334;BME280;42240;53.626;55.886;2023-01-24T01:35:04;80173.09;;;-145.10;100.00
56334;BME280;42240;53.626;55.886;2023-01-24T01:36:37;80171.09;;;-145.10;100.00
56334;BME280;42240;53.626;55.886;2023-01-24T01:38:10;80165.16;;;-145.10;100.00
56334;BME280;42240;53.626;55.886;2023-01-24T01:39:44;80167.13;;;-145.10;100.00
56334;BME280;42240;53.626;55.886;2023-01-24T01:41:17;80173.09;;;-145.10;100.00
56334;BME280;42240;53.626;55.886;2023-01-24T01:42:52;80173.09;;;-145.10;100.00
56334;BME280;42240;53.626;55.886;2023-01-24T01:44:29;80240.38;;;-145.10;100.00
56334;BME280;42240;53.626;55.886;2023-01-24T01:46:24;80157.25;;;-145.10;100.00
56334;BME280;42240;53.626;55.886;2023-01-24T01:48:00;80145.38;;;-145.10;100.00
56334;BME280;42240;53.626;55.886;2023-01-24T01:49:35;80141.41;;;-145.10;100.00
56334;BME280;42240;53.626;55.886;2023-01-24T01:51:16;80145.38;;;-145.10;100.00
56334;BME280;42240;53.626;55.886;2023-01-24T01:52:50;80161.22;;;-145.10;100.00
56334;BME280;42240;53.626;55.886;2023-01-24T01:54:30;80149.34;;;-145.10;100.00
56334;BME280;42240;53.626;55.886;2023-01-24T01:56:12;80258.19;;;-145.10;100.00
56334;BME280;42240;53.626;55.886;2023-01-24T01:57:48;80161.22;;;-145.10;100.00
56334;BME280;42240;53.626;55.886;2023-01-24T01:59:28;80145.38;;;-145.10;100.00
56334;BME280;42240;53.626;55.886;2023-01-24T02:01:05;80147.34;;;-145.10;100.00
56334;BME280;42240;53.626;55.886;2023-01-24T02:02:40;80149.34;;;-145.10;100.00
56334;BME280;42240;53.626;55.886;2023-01-24T02:04:17;80151.31;;;-145.10;100.00
56334;BME280;42240;53.626;55.886;2023-01-24T02:05:52;80153.28;;;-145.10;100.00
56334;BME280;42240;53.626;55.886;2023-01-24T02:07:36;80137.47;;;-145.10;100.00
56334;BME280;42240;53.626;55.886;2023-01-24T02:09:12;80139.44;;;-145.10;100.00
56334;BME280;42240;53.626;55.886;2023-01-24T02:10:48;80141.41;;;-145.10;100.00
56334;BME280;42240;53.626;55.886;2023-01-24T02:12:44;80139.44;;;-145.10;100.00
56334;BME280;42240;53.626;55.886;2023-01-24T02:14:20;80145.38;;;-145.10;100.00
56334;BME280;42240;53.626;55.886;2023-01-24T02:16:15;80157.25;;;-145.10;100.00
56334;BME280;42240;53.626;55.886;2023-01-24T02:17:50;80141.41;;;-145.10;100.00
56334;BME280;42240;53.626;55.886;2023-01-24T02:21:15;80135.47;;;-145.10;100.00
56334;BME280;42240;53.626;55.886;2023-01-24T02:24:40;80177.03;;;-145.10;100.00
56334;BME280;42240;53.626;55.886;2023-01-24T02:26:16;80117.66;;;-145.10;100.00
56334;BME280;42240;53.626;55.886;2023-01-24T02:27:51;80109.75;;;-145.10;100.00
56334;BME280;42240;53.626;55.886;2023-01-24T02:29:25;80117.66;;;-145.10;100.00
56334;BME280;42240;53.626;55.886;2023-01-24T02:31:00;80129.53;;;-145.10;100.00
56334;BME280;42240;53.626;55.886;2023-01-24T02:32:33;80139.44;;;-145.10;100.00
56334;BME280;42240;53.626;55.886;2023-01-24T02:34:07;80129.53;;;-145.10;100.00
56334;BME280;42240;53.626;55.886;2023-01-24T02:35:40;80127.56;;;-145.10;100.00
56334;BME280;42240;53.626;55.886;2023-01-24T02:37:13;80123.59;;;-145.10;100.00
56334;BME280;42240;53.626;55.886;2023-01-24T02:38:52;80117.66;;;-145.10;100.00
56334;BME280;42240;53.626;55.886;2023-01-24T02:40:27;80135.47;;;-145.10;100.00
56334;BME280;42240;53.626;55.886;2023-01-24T02:42:05;80184.97;;;-145.10;100.00
56334;BME280;42240;53.626;55.886;2023-01-24T02:43:45;80125.59;;;-145.10;100.00
56334;BME280;42240;53.626;55.886;2023-01-24T02:45:25;80123.59;;;-145.10;100.00
56334;BME280;42240;53.626;55.886;2023-01-24T02:46:59;80125.59;;;-145.10;100.00
56334;BME280;42240;53.626;55.886;2023-01-24T02:48:32;80113.72;;;-145.10;100.00
56334;BME280;42240;53.626;55.886;2023-01-24T02:50:06;80117.66;;;-145.10;100.00
56334;BME280;42240;53.626;55.886;2023-01-24T02:51:41;80113.72;;;-145.10;100.00
56334;BME280;42240;53.626;55.886;2023-01-24T02:53:33;80103.81;;;-145.10;100.00
56334;BME280;42240;53.626;55.886;2023-01-24T02:55:06;80095.91;;;-145.10;100.00
56334;BME280;42240;53.626;55.886;2023-01-24T02:56:39;80101.84;;;-145.10;100.00
56334;BME280;42240;53.626;55.886;2023-01-24T02:58:31;80103.81;;;-145.10;100.00
56334;BME280;42240;53.626;55.886;2023-01-24T03:00:07;80097.88;;;-145.10;100.00
56334;BME280;42240;53.626;55.886;2023-01-24T03:01:41;80101.84;;;-145.10;100.00
56334;BME280;42240;53.626;55.886;2023-01-24T03:03:15;80101.84;;;-145.10;100.00
56334;BME280;42240;53.626;55.886;2023-01-24T03:04:48;80097.88;;;-145.10;100.00
56334;BME280;42240;53.626;55.886;2023-01-24T03:06:23;80105.78;;;-145.10;100.00
56334;BME280;42240;53.626;55.886;2023-01-24T03:07:57;80101.84;;;-145.10;100.00
56334;BME280;42240;53.626;55.886;2023-01-24T03:09:30;80101.84;;;-145.10;100.00
56334;BME280;42240;53.626;55.886;2023-01-24T03:11:09;80101.84;;;-145.10;100.00
56334;BME280;42240;53.626;55.886;2023-01-24T03:12:42;80123.59;;;-145.10;100.00
56334;BME280;42240;53.626;55.886;2023-01-24T03:14:34;80123.59;;;-145.10;100.00
56334;BME280;42240;53.626;55.886;2023-01-24T03:16:28;80131.50;;;-145.10;100.00
56334;BME280;42240;53.626;55.886;2023-01-24T03:18:20;80131.50;;;-145.10;100.00
56334;BME280;42240;53.626;55.886;2023-01-24T03:20:11;80113.72;;;-145.10;100.00
56334;BME280;42240;53.626;55.886;2023-01-24T03:22:03;80125.59;;;-145.10;100.00
56334;BME280;42240;53.626;55.886;2023-01-24T03:23:54;80125.59;;;-145.10;100.00
56334;BME280;42240;53.626;55.886;2023-01-24T03:25:47;80105.78;;;-145.10;100.00
56334;BME280;42240;53.626;55.886;2023-01-24T03:27:38;80095.91;;;-145.10;100.00
56334;BME280;42240;53.626;55.886;2023-01-24T03:29:35;80093.91;;;-145.10;100.00
56334;BME280;42240;53.626;55.886;2023-01-24T03:31:27;80141.41;;;-145.10;100.00
56334;BME280;42240;53.626;55.886;2023-01-24T03:33:18;80097.88;;;-145.10;100.00
56334;BME280;42240;53.626;55.886;2023-01-24T03:35:12;80091.94;;;-145.10;100.00
56334;BME280;42240;53.626;55.886;2023-01-24T03:36:46;80093.91;;;-145.10;100.00
56334;BME280;42240;53.626;55.886;2023-01-24T03:38:20;80093.91;;;-145.10;100.00
56334;BME280;42240;53.626;55.886;2023-01-24T03:40:14;80105.78;;;-145.10;100.00
56334;BME280;42240;53.626;55.886;2023-01-24T03:41:49;80119.63;;;-145.10;100.00
56334;BME280;42240;53.626;55.886;2023-01-24T03:43:22;80113.72;;;-145.10;100.00
56334;BME280;42240;53.626;55.886;2023-01-24T03:44:55;80103.81;;;-145.10;100.00
56334;BME280;42240;53.626;55.886;2023-01-24T03:46:28;80093.91;;;-145.10;100.00
56334;BME280;42240;53.626;55.886;2023-01-24T03:48:07;80093.91;;;-145.10;100.00
56334;BME280;42240;53.626;55.886;2023-01-24T03:49:45;80097.88;;;-145.10;100.00
56334;BME280;42240;53.626;55.886;2023-01-24T03:51:37;80125.59;;;-145.10;100.00
56334;BME280;42240;53.626;55.886;2023-01-24T03:53:31;80143.38;;;-145.10;100.00
56334;BME280;42240;53.626;55.886;2023-01-24T03:55:05;80159.22;;;-145.10;100.00
56334;BME280;42240;53.626;55.886;2023-01-24T03:56:41;80149.34;;;-145.10;100.00
56334;BME280;42240;53.626;55.886;2023-01-24T03:58:14;80137.47;;;-145.10;100.00
56334;BME280;42240;53.626;55.886;2023-01-24T03:59:47;80165.16;;;-145.10;100.00
56334;BME280;42240;53.626;55.886;2023-01-24T04:01:20;80161.22;;;-145.10;100.00
56334;BME280;42240;53.626;55.886;2023-01-24T04:03:08;80157.25;;;-145.10;100.00
56334;BME280;42240;53.626;55.886;2023-01-24T04:04:41;80153.28;;;-145.10;100.00
56334;BME280;42240;53.626;55.886;2023-01-24T04:06:34;80155.25;;;-145.10;100.00
56334;BME280;42240;53.626;55.886;2023-01-24T04:08:10;80145.38;;;-145.10;100.00
56334;BME280;42240;53.626;55.886;2023-01-24T04:09:43;80141.41;;;-145.10;100.00
56334;BME280;42240;53.626;55.886;2023-01-24T04:11:16;80165.16;;;-145.10;100.00
56334;BME280;42240;53.626;55.886;2023-01-24T04:12:53;80149.34;;;-145.10;100.00
56334;BME280;42240;53.626;55.886;2023-01-24T04:14:26;80175.06;;;-145.10;100.00
56334;BME280;42240;53.626;55.886;2023-01-24T04:16:10;80232.44;;;-145.10;100.00
56334;BME280;42240;53.626;55.886;2023-01-24T04:18:06;80184.97;;;-145.10;100.00
56334;BME280;42240;53.626;55.886;2023-01-24T04:19:40;80173.09;;;-145.10;100.00
56334;BME280;42240;53.626;55.886;2023-01-24T04:21:13;80177.03;;;-145.10;100.00
56334;BME280;42240;53.626;55.886;2023-01-24T04:22:46;80171.09;;;-145.10;100.00
56334;BME280;42240;53.626;55.886;2023-01-24T04:24:19;80153.28;;;-145.10;100.00
56334;BME280;42240;53.626;55.886;2023-01-24T04:25:52;80151.31;;;-145.10;100.00
56334;BME280;42240;53.626;55.886;2023-01-24T04:27:31;80137.47;;;-145.10;100.00
56334;BME280;42240;53.626;55.886;2023-01-24T04:29:18;80149.34;;;-145.10;100.00
56334;BME280;42240;53.626;55.886;2023-01-24T04:30:58;80125.59;;;-145.10;100.00
56334;BME280;42240;53.626;55.886;2023-01-24T04:32:52;80141.41;;;-145.10;100.00
56334;BME280;42240;53.626;55.886;2023-01-24T04:34:30;80133.50;;;-145.10;100.00
56334;BME280;42240;53.626;55.886;2023-01-24T04:36:03;80125.59;;;-145.10;100.00
56334;BME280;42240;53.626;55.886;2023-01-24T04:37:37;80121.63;;;-145.10;100.00
56334;BME280;42240;53.626;55.886;2023-01-24T04:39:10;80145.38;;;-145.10;100.00
56334;BME280;42240;53.626;55.886;2023-01-24T04:40:58;80133.50;;;-145.10;100.00
56334;BME280;42240;53.626;55.886;2023-01-24T04:42:32;80117.66;;;-145.10;100.00
56334;BME280;42240;53.626;55.886;2023-01-24T04:44:07;80107.75;;;-145.10;100.00
56334;BME280;42240;53.626;55.886;2023-01-24T04:45:40;80099.84;;;-145.10;100.00
56334;BME280;42240;53.626;55.886;2023-01-24T04:47:17;80095.91;;;-145.10;100.00
56334;BME280;42240;53.626;55.886;2023-01-24T04:48:50;80115.69;;;-145.10;100.00
56334;BME280;42240;53.626;55.886;2023-01-24T04:50:24;80115.69;;;-145.10;100.00
56334;BME280;42240;53.626;55.886;2023-01-24T04:51:56;80113.72;;;-145.10;100.00
56334;BME280;42240;53.626;55.886;2023-01-24T04:53:38;80105.78;;;-145.10;100.00
56334;BME280;42240;53.626;55.886;2023-01-24T04:55:11;80097.88;;;-145.10;100.00
56334;BME280;42240;53.626;55.886;2023-01-24T04:56:44;80089.97;;;-145.10;100.00
56334;BME280;42240;53.626;55.886;2023-01-24T04:58:17;80082.03;;;-145.10;100.00
56334;BME280;42240;53.626;55.886;2023-01-24T04:59:51;80074.13;;;-145.10;100.00
56334;BME280;42240;53.626;55.886;2023-01-24T05:01:24;80070.16;;;-145.10;100.00
56334;BME280;42240;53.626;55.886;2023-01-24T05:03:07;80078.09;;;-145.10;100.00
56334;BME280;42240;53.626;55.886;2023-01-24T05:04:41;80062.25;;;-145.10;100.00
56334;BME280;42240;53.626;55.886;2023-01-24T05:06:15;80058.28;;;-145.10;100.00
56334;BME280;42240;53.626;55.886;2023-01-24T05:07:48;80052.34;;;-145.10;100.00
56334;BME280;42240;53.626;55.886;2023-01-24T05:09:24;80058.28;;;-145.10;100.00
56334;BME280;42240;53.626;55.886;2023-01-24T05:11:06;80066.22;;;-145.10;100.00
56334;BME280;42240;53.626;55.886;2023-01-24T05:12:45;80060.28;;;-145.10;100.00
56334;BME280;42240;53.626;55.886;2023-01-24T05:14:23;80046.41;;;-145.10;100.00
56334;BME280;42240;53.626;55.886;2023-01-24T05:15:58;80046.41;;;-145.10;100.00
56334;BME280;42240;53.626;55.886;2023-01-24T05:17:31;80032.56;;;-145.10;100.00
56334;BME280;42240;53.626;55.886;2023-01-24T05:19:05;80034.53;;;-145.10;100.00
56334;BME280;42240;53.626;55.886;2023-01-24T05:20:39;80022.66;;;-145.10;100.00
56334;BME280;42240;53.626;55.886;2023-01-24T05:22:12;80028.59;;;-145.10;100.00
56334;BME280;42240;53.626;55.886;2023-01-24T05:23:51;80022.66;;;-145.10;100.00
56334;BME280;42240;53.626;55.886;2023-01-24T05:25:26;80014.75;;;-145.10;100.00
56334;BME280;42240;53.626;55.886;2023-01-24T05:26:59;80093.91;;;-145.10;100.00
56334;BME280;42240;53.626;55.886;2023-01-24T05:28:35;79998.91;;;-145.10;100.00
56334;BME280;42240;53.626;55.886;2023-01-24T05:30:08;79994.97;;;-145.10;100.00
56334;BME280;42240;53.626;55.886;2023-01-24T05:31:43;79967.25;;;-145.10;100.00
56334;BME280;42240;53.626;55.886;2023-01-24T05:33:18;79973.19;;;-145.10;100.00
56334;BME280;42240;53.626;55.886;2023-01-24T05:34:52;79963.28;;;-145.10;100.00
56334;BME280;42240;53.626;55.886;2023-01-24T05:36:25;79955.38;;;-145.10;100.00
56334;BME280;42240;53.626;55.886;2023-01-24T05:38:00;79951.41;;;-145.10;100.00
56334;BME280;42240;53.626;55.886;2023-01-24T05:39:34;79949.44;;;-145.10;100.00
56334;BME280;42240;53.626;55.886;2023-01-24T05:41:09;79994.97;;;-145.10;100.00
56334;BME280;42240;53.626;55.886;2023-01-24T05:42:43;79931.63;;;-145.10;100.00
56334;BME280;42240;53.626;55.886;2023-01-24T05:44:17;79919.75;;;-145.10;100.00
56334;BME280;42240;53.626;55.886;2023-01-24T05:46:03;79921.72;;;-145.10;100.00
56334;BME280;42240;53.626;55.886;2023-01-24T05:47:40;79917.78;;;-145.10;100.00
56334;BME280;42240;53.626;55.886;2023-01-24T05:49:18;79892.06;;;-145.10;100.00
56334;BME280;42240;53.626;55.886;2023-01-24T05:50:58;79919.75;;;-145.10;100.00
56334;BME280;42240;53.626;55.886;2023-01-24T05:52:32;79884.13;;;-145.10;100.00
56334;BME280;42240;53.626;55.886;2023-01-24T05:54:05;79876.22;;;-145.10;100.00
56334;BME280;42240;53.626;55.886;2023-01-24T05:55:58;79868.31;;;-145.10;100.00
56334;BME280;42240;53.626;55.886;2023-01-24T05:57:35;79860.38;;;-145.10;100.00
56334;BME280;42240;53.626;55.886;2023-01-24T05:59:36;79842.56;;;-145.10;100.00
56334;BME280;42240;53.626;55.886;2023-01-24T06:01:14;79903.91;;;-145.10;100.00
56334;BME280;42240;53.626;55.886;2023-01-24T06:02:49;79840.59;;;-145.10;100.00
56334;BME280;42240;53.626;55.886;2023-01-24T06:04:23;79842.56;;;-145.10;100.00
56334;BME280;42240;53.626;55.886;2023-01-24T06:05:56;79951.41;;;-145.10;100.00
56334;BME280;42240;53.626;55.886;2023-01-24T06:07:32;79812.88;;;-145.10;100.00
56334;BME280;42240;53.626;55.886;2023-01-24T06:09:05;79812.88;;;-145.10;100.00
56334;BME280;42240;53.626;55.886;2023-01-24T06:10:38;79793.09;;;-145.10;100.00
56334;BME280;42240;53.626;55.886;2023-01-24T06:12:15;79785.19;;;-145.10;100.00
56334;BME280;42240;53.626;55.886;2023-01-24T06:13:49;79804.97;;;-145.10;100.00
56334;BME280;42240;53.626;55.886;2023-01-24T06:15:23;79793.09;;;-145.10;100.00
56334;BME280;42240;53.626;55.886;2023-01-24T06:16:56;79791.13;;;-145.10;100.00
56334;BME280;42240;53.626;55.886;2023-01-24T06:18:31;79779.25;;;-145.10;100.00
56334;BME280;42240;53.626;55.886;2023-01-24T06:20:05;79753.53;;;-145.10;100.00
56334;BME280;42240;53.626;55.886;2023-01-24T06:21:43;79757.47;;;-145.10;100.00
56334;BME280;42240;53.626;55.886;2023-01-24T06:23:25;79753.53;;;-145.10;100.00
56334;BME280;42240;53.626;55.886;2023-01-24T06:25:09;79741.66;;;-145.10;100.00
56334;BME280;42240;53.626;55.886;2023-01-24T06:26:51;79751.53;;;-145.10;100.00
56334;BME280;42240;53.626;55.886;2023-01-24T06:28:25;79745.59;;;-145.10;100.00
56334;BME280;42240;53.626;55.886;2023-01-24T06:29:59;79735.72;;;-145.10;100.00
56334;BME280;42240;53.626;55.886;2023-01-24T06:37:34;79751.53;;;-145.10;100.00
56334;BME280;42240;53.626;55.886;2023-01-24T06:38:47;79717.91;;;-145.10;100.00
56334;BME280;42240;53.626;55.886;2023-01-24T06:40:23;79721.84;;;-145.10;100.00
56334;BME280;42240;53.626;55.886;2023-01-24T06:41:57;79702.06;;;-145.10;100.00
56334;BME280;42240;53.626;55.886;2023-01-24T06:43:30;79686.25;;;-145.10;100.00
56334;BME280;42240;53.626;55.886;2023-01-24T06:45:04;79690.19;;;-145.10;100.00
56334;BME280;42240;53.626;55.886;2023-01-24T06:46:37;79706.03;;;-145.10;100.00
56334;BME280;42240;53.626;55.886;2023-01-24T06:48:11;79696.13;;;-145.10;100.00
56334;BME280;42240;53.626;55.886;2023-01-24T06:49:44;79658.53;;;-145.10;100.00
56334;BME280;42240;53.626;55.886;2023-01-24T06:51:17;79674.38;;;-145.10;100.00
56334;BME280;42240;53.626;55.886;2023-01-24T06:52:50;79676.34;;;-145.10;100.00
56334;BME280;42240;53.626;55.886;2023-01-24T06:54:25;79688.22;;;-145.10;100.00
56334;BME280;42240;53.626;55.886;2023-01-24T06:55:58;79674.38;;;-145.10;100.00
56334;BME280;42240;53.626;55.886;2023-01-24T06:57:31;79658.53;;;-145.10;100.00
56334;BME280;42240;53.626;55.886;2023-01-24T06:59:05;79658.53;;;-145.10;100.00
56334;BME280;42240;53.626;55.886;2023-01-24T07:00:38;79654.56;;;-145.10;100.00
56334;BME280;42240;53.626;55.886;2023-01-24T07:02:11;79690.19;;;-145.10;100.00
56334;BME280;42240;53.626;55.886;2023-01-24T07:03:44;79702.06;;;-145.10;100.00
56334;BME280;42240;53.626;55.886;2023-01-24T07:05:17;79706.03;;;-145.10;100.00
56334;BME280;42240;53.626;55.886;2023-01-24T07:06:50;79702.06;;;-145.10;100.00
56334;BME280;42240;53.626;55.886;2023-01-24T07:08:25;79753.53;;;-145.10;100.00
56334;BME280;42240;53.626;55.886;2023-01-24T07:09:58;79678.31;;;-145.10;100.00
56334;BME280;42240;53.626;55.886;2023-01-24T07:11:31;79682.28;;;-145.10;100.00
56334;BME280;42240;53.626;55.886;2023-01-24T07:13:04;79694.16;;;-145.10;100.00
56334;BME280;42240;53.626;55.886;2023-01-24T07:14:37;79686.25;;;-145.10;100.00
56334;BME280;42240;53.626;55.886;2023-01-24T07:16:10;79708.00;;;-145.10;100.00
56334;BME280;42240;53.626;55.886;2023-01-24T07:17:44;79741.66;;;-145.10;100.00
56334;BME280;42240;53.626;55.886;2023-01-24T07:19:19;79680.28;;;-145.10;100.00
56334;BME280;42240;53.626;55.886;2023-01-24T07:20:54;79717.91;;;-145.10;100.00
56334;BME280;42240;53.626;55.886;2023-01-24T07:22:27;79713.94;;;-145.10;100.00
56334;BME280;42240;53.626;55.886;2023-01-24T07:24:01;79702.06;;;-145.10;100.00
56334;BME280;42240;53.626;55.886;2023-01-24T07:25:34;79715.91;;;-145.10;100.00
56334;BME280;42240;53.626;55.886;2023-01-24T07:27:09;79702.06;;;-145.10;100.00
56334;BME280;42240;53.626;55.886;2023-01-24T07:28:42;79698.09;;;-145.10;100.00
56334;BME280;42240;53.626;55.886;2023-01-24T07:30:16;79670.41;;;-145.10;100.00
56334;BME280;42240;53.626;55.886;2023-01-24T07:31:49;79638.75;;;-145.10;100.00
56334;BME280;42240;53.626;55.886;2023-01-24T07:33:22;79630.81;;;-145.10;100.00
56334;BME280;42240;53.626;55.886;2023-01-24T07:34:56;79678.31;;;-145.10;100.00
56334;BME280;42240;53.626;55.886;2023-01-24T07:36:29;79636.75;;;-145.10;100.00
56334;BME280;42240;53.626;55.886;2023-01-24T07:38:02;79650.63;;;-145.10;100.00
56334;BME280;42240;53.626;55.886;2023-01-24T07:39:35;79706.03;;;-145.10;100.00
56334;BME280;42240;53.626;55.886;2023-01-24T07:41:09;79638.75;;;-145.10;100.00
56334;BME280;42240;53.626;55.886;2023-01-24T07:42:42;79618.94;;;-145.10;100.00
56334;BME280;42240;53.626;55.886;2023-01-24T07:44:15;79611.03;;;-145.10;100.00
56334;BME280;42240;53.626;55.886;2023-01-24T07:45:48;79587.28;;;-145.10;100.00
56334;BME280;42240;53.626;55.886;2023-01-24T07:47:24;79583.34;;;-145.10;100.00
56334;BME280;42240;53.626;55.886;2023-01-24T07:48:59;79607.09;;;-145.10;100.00
56334;BME280;42240;53.626;55.886;2023-01-24T07:50:34;79682.28;;;-145.10;100.00
56334;BME280;42240;53.626;55.886;2023-01-24T07:52:07;79609.06;;;-145.10;100.00
56334;BME280;42240;53.626;55.886;2023-01-24T07:53:40;79618.94;;;-145.10;100.00
56334;BME280;42240;53.626;55.886;2023-01-24T07:55:14;79599.16;;;-145.10;100.00
56334;BME280;42240;53.626;55.886;2023-01-24T07:56:46;79575.41;;;-145.10;100.00
56334;BME280;42240;53.626;55.886;2023-01-24T07:58:20;79567.50;;;-145.10;100.00
56334;BME280;42240;53.626;55.886;2023-01-24T07:59:53;79575.41;;;-145.10;100.00
56334;BME280;42240;53.626;55.886;2023-01-24T08:01:26;79553.66;;;-145.10;100.00
56334;BME280;42240;53.626;55.886;2023-01-24T08:02:59;79533.84;;;-145.10;100.00
56334;BME280;42240;53.626;55.886;2023-01-24T08:04:32;79549.69;;;-145.10;100.00
56334;BME280;42240;53.626;55.886;2023-01-24T08:06:07;79583.34;;;-145.10;100.00
56334;BME280;42240;53.626;55.886;2023-01-24T08:07:40;79523.97;;;-145.10;100.00
56334;BME280;42240;53.626;55.886;2023-01-24T08:09:13;79496.25;;;-145.10;100.00
56334;BME280;42240;53.626;55.886;2023-01-24T08:10:46;79500.22;;;-145.10;100.00
56334;BME280;42240;53.626;55.886;2023-01-24T08:12:20;79494.28;;;-145.10;100.00